Terminal Aerodrome Forecast
Issued by NWS

Home | Current Version | Previous Version | Text Only | Print | Product List | Glossary On
Versions: 1 2 3 4 5 6 7 8 9 10 11 12 13 14 15 16
000
FTUS41 KBOX 242322
TAFBAF
TAF
KBAF 242322Z 2500/2524 VRB03KT P6SM SCT250
     FM250400 07003KT P6SM BKN250
     FM251100 06010KT P6SM -SHRA OVC040
     FM251400 04011KT 4SM -SHRA OVC020
     FM251900 06009KT 3SM -SHRA BR OVC008=

USA.gov is the U.S. government's official web portal to all federal, state and local government web resources and services.